createdAt,value
2018-04-11T00:00:07.031Z,73.78
2018-04-11T00:01:13.239Z,73.80
2018-04-11T00:02:19.471Z,73.37
2018-04-11T00:03:25.805Z,73.21
2018-04-11T00:04:32.066Z,72.83
2018-04-11T00:05:44.932Z,73.27
2018-04-11T00:06:53.400Z,73.13
2018-04-11T00:07:59.408Z,73.11
2018-04-11T00:09:04.918Z,72.80
2018-04-11T00:10:10.923Z,72.69
2018-04-11T00:11:16.899Z,72.44
2018-04-11T00:12:23.156Z,72.83
2018-04-11T00:13:29.407Z,72.82
2018-04-11T00:14:35.322Z,72.83
2018-04-11T00:15:41.533Z,72.53
2018-04-11T00:16:47.735Z,72.50
2018-04-11T00:17:53.995Z,72.99
2018-04-11T00:19:00.302Z,72.97
2018-04-11T00:20:06.576Z,72.94
2018-04-11T00:21:14.336Z,72.85
2018-04-11T00:22:22.015Z,73.01
2018-04-11T00:23:29.240Z,72.96
2018-04-11T00:24:35.543Z,72.94
2018-04-11T00:25:41.832Z,72.95
2018-04-11T00:26:48.149Z,73.09
2018-04-11T00:27:54.583Z,73.26
2018-04-11T00:29:01.219Z,73.14
2018-04-11T00:30:07.481Z,73.30
2018-04-11T00:31:13.671Z,73.63
2018-04-11T00:32:19.897Z,73.99
2018-04-11T00:33:26.251Z,73.90
2018-04-11T00:34:32.404Z,73.66
2018-04-11T00:35:38.647Z,73.79
2018-04-11T00:36:44.966Z,74.27
2018-04-11T00:37:53.803Z,74.11
2018-04-11T00:38:59.988Z,74.30
2018-04-11T00:40:06.359Z,74.53
2018-04-11T00:41:12.619Z,74.64
2018-04-11T00:42:18.909Z,74.97
2018-04-11T00:43:25.168Z,75.15
2018-04-11T00:44:31.391Z,75.15
2018-04-11T00:45:37.560Z,75.39
2018-04-11T00:46:43.787Z,75.05
2018-04-11T00:47:55.604Z,74.65
2018-04-11T00:49:01.932Z,74.14
2018-04-11T00:50:08.176Z,73.81
2018-04-11T00:51:14.459Z,74.08
2018-04-11T00:52:20.793Z,74.12
2018-04-11T00:53:28.650Z,74.15
2018-04-11T00:54:34.928Z,74.47
2018-04-11T00:55:41.178Z,74.69
2018-04-11T00:56:47.501Z,75.03
2018-04-11T00:57:53.431Z,75.12
2018-04-11T00:58:59.651Z,75.07
2018-04-11T01:00:05.567Z,74.88
2018-04-11T01:01:11.791Z,75.27
2018-04-11T01:02:18.024Z,75.39
2018-04-11T01:03:24.356Z,75.82
2018-04-11T01:04:30.615Z,76.06
2018-04-11T01:05:36.837Z,76.38
2018-04-11T01:06:43.060Z,76.75
2018-04-11T01:07:49.347Z,76.43
2018-04-11T01:08:55.580Z,75.67
2018-04-11T01:10:01.555Z,75.86
2018-04-11T01:11:07.449Z,75.77
2018-04-11T01:12:13.676Z,75.67
2018-04-11T01:13:20.204Z,75.69
2018-04-11T01:14:26.365Z,75.00
2018-04-11T01:15:32.639Z,75.64
2018-04-11T01:16:39.580Z,75.24
2018-04-11T01:17:45.863Z,75.41
2018-04-11T01:18:52.091Z,75.57
2018-04-11T01:19:58.409Z,75.48
2018-04-11T01:21:04.679Z,75.49
2018-04-11T01:22:10.675Z,75.40
2018-04-11T01:23:17.499Z,75.32
2018-04-11T01:24:26.515Z,75.28
2018-04-11T01:25:32.837Z,75.25
2018-04-11T01:26:39.199Z,75.60
2018-04-11T01:27:45.417Z,75.51
2018-04-11T01:28:55.028Z,75.76
2018-04-11T01:30:01.188Z,75.48
2018-04-11T01:31:07.110Z,75.41
2018-04-11T01:32:13.298Z,75.84
2018-04-11T01:33:19.539Z,75.96
2018-04-11T01:34:25.751Z,75.97
2018-04-11T01:35:31.943Z,76.41
2018-04-11T01:36:38.180Z,77.48
2018-04-11T01:37:44.344Z,78.03
2018-04-11T01:38:50.869Z,78.67
2018-04-11T01:39:56.883Z,78.83
2018-04-11T01:41:03.235Z,79.40
2018-04-11T01:42:09.521Z,79.71
2018-04-11T01:43:15.482Z,80.12
2018-04-11T01:44:23.997Z,80.03
2018-04-11T01:45:32.694Z,79.79
2018-04-11T01:46:38.950Z,79.38
2018-04-11T01:47:45.139Z,78.86
2018-04-11T01:48:51.386Z,78.67
2018-04-11T01:50:02.719Z,78.41
2018-04-11T01:51:11.396Z,77.98
2018-04-11T01:52:18.810Z,77.99
2018-04-11T01:53:25.015Z,77.67
2018-04-11T01:54:31.044Z,77.83
2018-04-11T01:55:46.623Z,77.68
2018-04-11T01:56:52.843Z,77.37
2018-04-11T01:57:59.091Z,77.40
2018-04-11T01:59:05.089Z,77.28
2018-04-11T02:00:11.400Z,77.20
2018-04-11T02:01:17.592Z,77.11
2018-04-11T02:02:23.825Z,77.35
2018-04-11T02:03:33.995Z,77.07
2018-04-11T02:04:39.970Z,77.07
2018-04-11T02:05:46.239Z,77.21
2018-04-11T02:06:52.624Z,77.37
2018-04-11T02:07:58.834Z,77.53
2018-04-11T02:09:03.896Z,77.23
2018-04-11T02:10:09.934Z,77.39
2018-04-11T02:11:15.880Z,77.28
2018-04-11T02:12:22.128Z,77.24
2018-04-11T02:13:28.137Z,77.23
2018-04-11T02:14:34.205Z,77.20
2018-04-11T02:15:41.388Z,77.31
2018-04-11T02:16:47.541Z,77.27
2018-04-11T02:17:53.592Z,77.47
2018-04-11T02:19:00.596Z,77.67
2018-04-11T02:20:06.844Z,77.83
2018-04-11T02:21:13.454Z,77.78
2018-04-11T02:22:19.868Z,77.88
2018-04-11T02:23:26.182Z,78.05
2018-04-11T02:24:32.399Z,77.95
2018-04-11T02:25:38.664Z,77.87
2018-04-11T02:26:45.149Z,77.87
2018-04-11T02:27:52.053Z,77.79
2018-04-11T02:28:58.261Z,77.82
2018-04-11T02:30:04.253Z,78.09
2018-04-11T02:31:12.848Z,78.52
2018-04-11T02:32:20.222Z,78.81
2018-04-11T02:33:26.464Z,78.96
2018-04-11T02:34:32.432Z,79.20
2018-04-11T02:35:38.687Z,79.37
2018-04-11T02:36:44.918Z,79.32
2018-04-11T02:37:51.955Z,78.97
2018-04-11T02:38:58.719Z,78.64
2018-04-11T02:40:04.278Z,78.30
2018-04-11T02:41:10.558Z,78.53
2018-04-11T02:42:16.864Z,78.65
2018-04-11T02:43:23.055Z,79.06
2018-04-11T02:44:29.393Z,78.86
2018-04-11T02:45:35.727Z,78.62
2018-04-11T02:46:42.962Z,78.32
2018-04-11T02:47:50.711Z,78.12
2018-04-11T02:48:58.215Z,78.07
2018-04-11T02:50:04.115Z,78.15
2018-04-11T02:51:10.351Z,78.17
2018-04-11T02:52:17.531Z,78.23
2018-04-11T02:53:24.343Z,77.82
2018-04-11T02:54:30.615Z,77.60
2018-04-11T02:55:36.944Z,77.45
2018-04-11T02:56:43.230Z,77.50
2018-04-11T02:57:49.425Z,77.29
2018-04-11T02:58:55.627Z,77.28
2018-04-11T03:00:02.559Z,77.20
2018-04-11T03:01:08.811Z,77.28
2018-04-11T03:02:15.087Z,77.19
2018-04-11T03:03:23.311Z,77.09
2018-04-11T03:04:29.541Z,77.08
2018-04-11T03:05:35.751Z,77.07
2018-04-11T03:06:42.269Z,77.07
2018-04-11T03:07:48.561Z,76.97
2018-04-11T03:08:54.883Z,77.23
2018-04-11T03:10:01.150Z,77.17
2018-04-11T03:11:07.470Z,77.19
2018-04-11T03:12:13.783Z,77.34
2018-04-11T03:13:19.956Z,77.30
2018-04-11T03:14:26.283Z,77.13
2018-04-11T03:15:32.621Z,77.18
2018-04-11T03:16:38.897Z,77.25
2018-04-11T03:17:45.188Z,77.40
2018-04-11T03:18:51.363Z,77.59
2018-04-11T03:19:57.700Z,78.00
2018-04-11T03:21:04.114Z,78.33
2018-04-11T03:22:10.099Z,78.37
2018-04-11T03:23:16.435Z,78.51
2018-04-11T03:24:22.651Z,78.74
2018-04-11T03:25:28.961Z,78.62
2018-04-11T03:26:35.169Z,78.41
2018-04-11T03:27:41.513Z,78.28
2018-04-11T03:28:47.799Z,78.01
2018-04-11T03:29:54.023Z,78.23
2018-04-11T03:30:59.785Z,78.87
2018-04-11T03:32:07.262Z,79.07
2018-04-11T03:33:13.544Z,79.92
2018-04-11T03:34:19.540Z,80.42
2018-04-11T03:35:25.870Z,80.19
2018-04-11T03:36:32.066Z,79.90
2018-04-11T03:37:38.307Z,79.95
2018-04-11T03:38:46.770Z,80.00
2018-04-11T03:39:52.931Z,79.96
2018-04-11T03:40:59.188Z,79.82
2018-04-11T03:42:05.793Z,79.70
2018-04-11T03:43:12.002Z,79.75
2018-04-11T03:44:18.210Z,79.56
2018-04-11T03:45:24.529Z,79.61
2018-04-11T03:46:30.730Z,79.27
2018-04-11T03:47:36.949Z,78.90
2018-04-11T03:48:43.138Z,78.59
2018-04-11T03:49:49.684Z,78.66
2018-04-11T03:50:59.734Z,78.43
2018-04-11T03:52:05.924Z,78.56
2018-04-11T03:53:12.171Z,78.25
2018-04-11T03:54:20.382Z,78.28
2018-04-11T03:55:27.524Z,78.40
2018-04-11T03:56:33.818Z,78.04
2018-04-11T03:57:39.917Z,78.20
2018-04-11T03:58:46.180Z,78.29
2018-04-11T03:59:52.432Z,78.01
2018-04-11T04:00:58.684Z,78.01
2018-04-11T04:02:04.931Z,78.13
2018-04-11T04:03:11.307Z,77.95
2018-04-11T04:04:17.460Z,78.24
2018-04-11T04:05:23.759Z,77.84
2018-04-11T04:06:29.948Z,78.04
2018-04-11T04:07:36.859Z,77.96
2018-04-11T04:08:44.518Z,77.91
2018-04-11T04:09:51.702Z,77.79
2018-04-11T04:10:58.932Z,77.53
2018-04-11T04:12:05.719Z,77.67
2018-04-11T04:13:12.070Z,77.87
2018-04-11T04:14:29.955Z,78.22
2018-04-11T04:15:52.164Z,78.12
2018-04-11T04:17:11.867Z,78.20
2018-04-11T04:18:28.828Z,78.38
2018-04-11T04:19:45.961Z,78.78
2018-04-11T04:20:52.347Z,79.19
2018-04-11T04:21:58.506Z,79.04
2018-04-11T04:23:05.641Z,79.96
2018-04-11T04:24:11.867Z,79.80
2018-04-11T04:25:18.065Z,79.06
2018-04-11T04:26:24.339Z,79.24
2018-04-11T04:27:30.619Z,79.19
2018-04-11T04:28:36.843Z,78.83
2018-04-11T04:29:43.128Z,78.82
2018-04-11T04:30:49.461Z,78.92
2018-04-11T04:31:55.652Z,79.82
2018-04-11T04:33:01.657Z,79.56
2018-04-11T04:34:07.886Z,79.67
2018-04-11T04:35:14.059Z,79.72
2018-04-11T04:36:20.385Z,79.42
2018-04-11T04:37:28.176Z,79.17
2018-04-11T04:38:34.396Z,79.11
2018-04-11T04:39:40.680Z,79.19
2018-04-11T04:40:48.135Z,78.89
2018-04-11T04:41:54.424Z,78.80
2018-04-11T04:43:00.814Z,78.66
2018-04-11T04:44:07.083Z,78.89
2018-04-11T04:45:13.077Z,79.06
2018-04-11T04:46:22.130Z,79.63
2018-04-11T04:47:28.296Z,80.24
2018-04-11T04:48:35.264Z,80.68
2018-04-11T04:49:41.783Z,80.43
2018-04-11T04:50:48.704Z,80.17
2018-04-11T04:51:54.772Z,80.73
2018-04-11T04:53:01.009Z,80.93
2018-04-11T04:54:07.359Z,81.12
2018-04-11T04:55:13.623Z,81.14
2018-04-11T04:56:19.919Z,81.65
2018-04-11T04:57:26.272Z,81.77
2018-04-11T04:58:32.606Z,81.83
2018-04-11T04:59:38.879Z,81.59
2018-04-11T05:00:45.235Z,81.66
2018-04-11T05:01:53.732Z,81.51
2018-04-11T05:03:01.463Z,80.90
2018-04-11T05:04:07.751Z,80.64
2018-04-11T05:05:13.838Z,80.44
2018-04-11T05:06:20.109Z,80.43
2018-04-11T05:07:27.094Z,80.21
2018-04-11T05:08:33.412Z,79.92
2018-04-11T05:09:39.400Z,79.65
2018-04-11T05:10:45.718Z,79.23
2018-04-11T05:11:52.034Z,79.53
2018-04-11T05:12:58.920Z,79.76
2018-04-11T05:14:06.082Z,79.82
2018-04-11T05:15:12.716Z,79.89
2018-04-11T05:16:18.871Z,79.55
2018-04-11T05:17:27.681Z,78.86
2018-04-11T05:18:35.014Z,78.74
2018-04-11T05:19:46.565Z,78.46
2018-04-11T05:20:53.574Z,78.54
2018-04-11T05:21:59.977Z,78.10
2018-04-11T05:23:06.249Z,77.84
2018-04-11T05:24:12.235Z,78.14
2018-04-11T05:25:18.260Z,77.97
2018-04-11T05:26:25.341Z,78.16
2018-04-11T05:27:31.543Z,78.21
2018-04-11T05:28:37.600Z,78.02
2018-04-11T05:29:44.003Z,77.90
2018-04-11T05:30:50.968Z,77.50
2018-04-11T05:31:56.938Z,77.68
2018-04-11T05:33:04.910Z,77.79
2018-04-11T05:34:11.516Z,77.55
2018-04-11T05:35:17.550Z,78.00
2018-04-11T05:36:24.555Z,78.01
2018-04-11T05:37:30.795Z,78.32
2018-04-11T05:38:37.127Z,77.48
2018-04-11T05:39:53.527Z,77.41
2018-04-11T05:41:00.332Z,76.96
2018-04-11T05:42:07.151Z,77.07
2018-04-11T05:43:13.385Z,77.18
2018-04-11T05:44:19.566Z,77.25
2018-04-11T05:45:25.954Z,76.58
2018-04-11T05:46:32.210Z,76.61
2018-04-11T05:47:38.823Z,76.65
2018-04-11T05:48:45.056Z,76.69
2018-04-11T05:49:51.388Z,76.36
2018-04-11T05:50:57.694Z,76.27
2018-04-11T05:52:04.902Z,76.64
2018-04-11T05:53:11.129Z,77.04
2018-04-11T05:54:17.800Z,76.99
2018-04-11T05:55:24.073Z,77.40
2018-04-11T05:56:35.194Z,76.56
2018-04-11T05:57:41.478Z,76.40
2018-04-11T05:58:47.702Z,75.66
2018-04-11T05:59:54.030Z,74.80
2018-04-11T06:01:07.180Z,74.92
2018-04-11T06:02:16.555Z,75.40
2018-04-11T06:03:22.876Z,74.70
2018-04-11T06:04:29.295Z,74.58
2018-04-11T06:05:35.723Z,73.93
2018-04-11T06:06:42.108Z,73.98
2018-04-11T06:07:48.902Z,74.00
2018-04-11T06:08:55.270Z,73.49
2018-04-11T06:10:01.636Z,73.98
2018-04-11T06:11:08.007Z,72.88
2018-04-11T06:12:14.403Z,72.43
2018-04-11T06:13:20.751Z,72.53
2018-04-11T06:14:27.646Z,72.66
2018-04-11T06:15:34.231Z,72.27
2018-04-11T06:16:40.569Z,73.02
2018-04-11T06:17:46.884Z,72.66
2018-04-11T06:18:53.275Z,71.90
2018-04-11T06:19:59.710Z,72.39
2018-04-11T06:21:06.158Z,72.61
2018-04-11T06:22:17.332Z,72.33
2018-04-11T06:23:23.949Z,72.87
2018-04-11T06:24:30.282Z,72.58
2018-04-11T06:25:36.605Z,72.29
2018-04-11T06:26:42.719Z,71.90
2018-04-11T06:27:49.104Z,72.15
2018-04-11T06:28:55.443Z,72.71
2018-04-11T06:30:01.783Z,72.05
2018-04-11T06:31:08.071Z,72.27
2018-04-11T06:32:14.347Z,71.68
2018-04-11T06:33:20.754Z,72.05
2018-04-11T06:34:27.074Z,72.53
2018-04-11T06:35:33.492Z,71.94
2018-04-11T06:36:39.846Z,71.45
2018-04-11T06:37:46.112Z,71.22
2018-04-11T06:38:52.371Z,71.08
2018-04-11T06:39:58.932Z,71.02
2018-04-11T06:41:05.282Z,71.21
2018-04-11T06:42:11.703Z,70.42
2018-04-11T06:43:21.828Z,70.81
2018-04-11T06:44:28.604Z,70.52
2018-04-11T06:45:34.539Z,70.99
2018-04-11T06:46:40.968Z,70.31
2018-04-11T06:47:47.330Z,70.40
2018-04-11T06:48:53.628Z,70.56
2018-04-11T06:49:59.938Z,71.26
2018-04-11T06:51:06.156Z,70.48
2018-04-11T06:52:12.385Z,70.71
2018-04-11T06:53:18.659Z,70.35
2018-04-11T06:54:24.992Z,69.97
2018-04-11T06:55:31.405Z,70.77
2018-04-11T06:56:37.746Z,70.93
2018-04-11T06:57:43.914Z,71.41
2018-04-11T06:58:50.110Z,71.07
2018-04-11T06:59:56.208Z,70.95
2018-04-11T07:01:08.724Z,71.26
2018-04-11T07:02:15.230Z,71.68
2018-04-11T07:03:21.522Z,71.76
2018-04-11T07:04:32.679Z,71.04
2018-04-11T07:05:40.482Z,70.81
2018-04-11T07:06:47.027Z,71.53
2018-04-11T07:07:53.322Z,70.95
2018-04-11T07:08:59.664Z,71.08
2018-04-11T07:10:06.742Z,70.99
2018-04-11T07:11:12.959Z,71.81
2018-04-11T07:12:52.540Z,71.50
2018-04-11T07:13:58.883Z,72.11
2018-04-11T07:15:04.810Z,71.30
2018-04-11T07:16:11.181Z,71.14
2018-04-11T07:17:17.617Z,71.54
2018-04-11T07:18:23.903Z,72.14
2018-04-11T07:19:30.208Z,71.64
2018-04-11T07:20:36.616Z,70.89
2018-04-11T07:21:42.939Z,71.87
2018-04-11T07:22:49.282Z,70.92
2018-04-11T07:23:55.548Z,70.43
2018-04-11T07:25:01.655Z,70.93
2018-04-11T07:26:07.420Z,70.12
2018-04-11T07:27:14.053Z,70.88
2018-04-11T07:28:21.756Z,70.04
2018-04-11T07:29:28.121Z,69.69
2018-04-11T07:30:34.335Z,69.87
2018-04-11T07:31:40.672Z,70.53
2018-04-11T07:32:47.022Z,69.92
2018-04-11T07:33:53.267Z,70.90
2018-04-11T07:34:59.496Z,70.58
2018-04-11T07:36:06.326Z,70.05
2018-04-11T07:37:12.667Z,70.25
2018-04-11T07:38:18.941Z,70.11
2018-04-11T07:39:25.308Z,70.04
2018-04-11T07:40:31.560Z,70.24
2018-04-11T07:41:37.802Z,70.81
2018-04-11T07:42:43.783Z,70.36
2018-04-11T07:43:50.803Z,70.10
2018-04-11T07:44:57.121Z,70.66
2018-04-11T07:46:03.339Z,69.81
2018-04-11T07:47:13.220Z,69.85
2018-04-11T07:48:19.202Z,69.56
2018-04-11T07:49:25.770Z,70.54
2018-04-11T07:50:32.031Z,70.53
2018-04-11T07:51:38.270Z,70.12
2018-04-11T07:52:44.383Z,70.30
2018-04-11T07:53:50.873Z,70.18
2018-04-11T07:54:57.081Z,70.36
2018-04-11T07:56:03.296Z,70.09
2018-04-11T07:57:09.550Z,70.49
2018-04-11T07:58:15.847Z,70.31
2018-04-11T07:59:22.144Z,70.36
2018-04-11T08:00:28.703Z,69.65
2018-04-11T08:01:35.079Z,69.98
2018-04-11T08:02:41.405Z,70.42
2018-04-11T08:03:54.714Z,69.66
2018-04-11T08:05:00.734Z,69.15
2018-04-11T08:06:06.737Z,69.37
2018-04-11T08:07:12.969Z,69.63
2018-04-11T08:08:19.314Z,69.46
2018-04-11T08:09:25.639Z,69.48
2018-04-11T08:10:31.708Z,69.01
2018-04-11T08:11:38.048Z,69.80
2018-04-11T08:12:44.357Z,69.17
2018-04-11T08:13:50.645Z,68.69
2018-04-11T08:14:56.731Z,69.31
2018-04-11T08:16:03.071Z,69.14
2018-04-11T08:17:09.367Z,68.36
2018-04-11T08:18:15.611Z,68.62
2018-04-11T08:19:23.054Z,67.79
2018-04-11T08:20:29.013Z,67.77
2018-04-11T08:21:34.989Z,68.20
2018-04-11T08:22:41.247Z,67.90
2018-04-11T08:23:46.531Z,68.05
2018-04-11T08:24:52.841Z,68.72
2018-04-11T08:25:59.531Z,68.44
2018-04-11T08:27:06.290Z,68.97
2018-04-11T08:28:13.178Z,68.72
2018-04-11T08:29:19.207Z,68.65
2018-04-11T08:30:25.503Z,68.90
2018-04-11T08:31:31.638Z,68.37
2018-04-11T08:32:37.721Z,69.00
2018-04-11T08:33:43.978Z,69.45
2018-04-11T08:34:50.852Z,69.04
2018-04-11T08:35:59.108Z,69.16
2018-04-11T08:37:05.450Z,68.98
2018-04-11T08:38:11.745Z,68.73
2018-04-11T08:39:17.968Z,67.79
2018-04-11T08:40:24.148Z,67.42
2018-04-11T08:41:30.373Z,69.11
2018-04-11T08:42:36.811Z,67.26
2018-04-11T08:43:43.125Z,66.40
2018-04-11T08:44:49.435Z,66.34
2018-04-11T08:45:55.737Z,65.45
2018-04-11T08:47:02.041Z,65.65
2018-04-11T08:48:08.251Z,64.84
2018-04-11T08:49:18.152Z,64.93
2018-04-11T08:50:26.101Z,65.85
2018-04-11T08:51:33.194Z,65.38
2018-04-11T08:52:39.451Z,64.57
2018-04-11T08:53:45.865Z,64.65
2018-04-11T08:54:52.192Z,63.56
2018-04-11T08:55:58.479Z,64.48
2018-04-11T08:57:04.802Z,63.48
2018-04-11T08:58:17.939Z,62.53
2018-04-11T08:59:24.174Z,62.37
2018-04-11T09:00:30.457Z,63.26
2018-04-11T09:01:36.818Z,62.52
2018-04-11T09:02:43.104Z,62.84
2018-04-11T09:03:49.418Z,62.63
2018-04-11T09:04:55.655Z,62.80
2018-04-11T09:06:03.139Z,62.22
2018-04-11T09:07:16.084Z,63.29
2018-04-11T09:08:22.102Z,63.76
2018-04-11T09:09:28.680Z,63.08
2018-04-11T09:10:34.966Z,63.76
2018-04-11T09:11:41.379Z,64.82
2018-04-11T09:12:47.579Z,64.95
2018-04-11T09:13:53.955Z,65.45
2018-04-11T09:15:00.245Z,65.52
2018-04-11T09:16:06.549Z,65.57
2018-04-11T09:17:12.819Z,65.81
2018-04-11T09:18:19.054Z,65.42
2018-04-11T09:19:24.991Z,65.19
2018-04-11T09:20:31.312Z,65.60
2018-04-11T09:21:39.510Z,66.21
2018-04-11T09:22:46.992Z,65.55
2018-04-11T09:23:53.806Z,66.05
2018-04-11T09:25:00.106Z,66.26
2018-04-11T09:27:11.411Z,66.59
2018-04-11T09:28:18.412Z,66.33
2018-04-11T09:29:24.591Z,66.62
2018-04-11T09:30:30.867Z,66.34
2018-04-11T09:31:37.143Z,66.31
2018-04-11T09:32:43.480Z,66.76
2018-04-11T09:33:49.754Z,68.03
2018-04-11T09:34:55.901Z,65.82
2018-04-11T09:36:02.241Z,66.00
2018-04-11T09:37:09.055Z,65.50
2018-04-11T09:38:15.884Z,65.88
2018-04-11T09:39:22.136Z,66.80
2018-04-11T09:40:28.382Z,66.95
2018-04-11T09:41:35.168Z,67.43
2018-04-11T09:42:41.419Z,66.35
2018-04-11T09:43:47.941Z,66.83
2018-04-11T09:44:54.315Z,66.24
2018-04-11T09:46:00.798Z,66.37
2018-04-11T09:47:07.897Z,66.80
2018-04-11T09:48:15.251Z,65.45
2018-04-11T09:49:21.509Z,67.48
2018-04-11T09:50:27.967Z,65.66
2018-04-11T09:51:34.241Z,66.26
2018-04-11T09:52:40.706Z,67.12
2018-04-11T09:53:50.147Z,66.45
2018-04-11T09:54:57.120Z,66.27
2018-04-11T09:56:03.151Z,66.12
2018-04-11T09:57:09.370Z,66.21
2018-04-11T09:58:15.711Z,66.05
2018-04-11T09:59:21.997Z,65.64
2018-04-11T10:00:28.287Z,66.17
2018-04-11T10:01:50.320Z,66.16
2018-04-11T10:03:02.760Z,66.70
2018-04-11T10:04:09.051Z,66.98
2018-04-11T10:05:15.372Z,66.79
2018-04-11T10:06:21.679Z,66.15
2018-04-11T10:07:28.397Z,66.71
2018-04-11T10:08:34.683Z,66.56
2018-04-11T10:09:41.019Z,65.95
2018-04-11T10:10:47.355Z,66.76
2018-04-11T10:11:53.732Z,66.58
2018-04-11T10:12:59.903Z,65.76
2018-04-11T10:14:06.149Z,65.98
2018-04-11T10:15:12.366Z,65.78
2018-04-11T10:16:18.602Z,65.84
2018-04-11T10:17:24.882Z,66.05
2018-04-11T10:18:30.863Z,65.97
2018-04-11T10:19:37.082Z,64.72
2018-04-11T10:20:43.438Z,65.14
2018-04-11T10:21:49.501Z,65.04
2018-04-11T10:22:55.615Z,65.29
2018-04-11T10:24:04.059Z,64.45
2018-04-11T10:25:10.228Z,64.00
2018-04-11T10:26:16.186Z,64.45
2018-04-11T10:27:22.507Z,65.16
2018-04-11T10:28:28.858Z,64.55
2018-04-11T10:29:35.205Z,64.44
2018-04-11T10:30:41.481Z,64.44
2018-04-11T10:31:47.821Z,64.12
2018-04-11T10:32:54.115Z,64.79
2018-04-11T10:34:00.444Z,64.37
2018-04-11T10:35:07.211Z,64.51
2018-04-11T10:36:13.222Z,65.12
2018-04-11T10:37:19.533Z,65.09
2018-04-11T10:38:25.837Z,64.60
2018-04-11T10:39:33.232Z,65.30
2018-04-11T10:40:40.752Z,66.18
2018-04-11T10:41:47.068Z,65.38
2018-04-11T10:42:53.364Z,66.14
2018-04-11T10:43:59.662Z,65.42
2018-04-11T10:45:05.860Z,66.08
2018-04-11T10:46:12.134Z,65.95
2018-04-11T10:47:18.580Z,65.52
2018-04-11T10:48:24.795Z,65.64
2018-04-11T10:49:31.023Z,66.03
2018-04-11T10:50:37.995Z,66.56
2018-04-11T10:51:45.139Z,66.45
2018-04-11T10:52:51.465Z,66.14
2018-04-11T10:53:57.640Z,67.14
2018-04-11T10:55:05.393Z,67.00
2018-04-11T10:56:12.367Z,66.59
2018-04-11T10:57:18.699Z,67.03
2018-04-11T10:58:24.997Z,67.12
2018-04-11T10:59:31.274Z,66.65
2018-04-11T11:00:37.662Z,66.77
2018-04-11T11:01:43.705Z,66.90
2018-04-11T11:02:50.051Z,66.72
2018-04-11T11:03:56.319Z,66.97
2018-04-11T11:05:02.552Z,67.32
2018-04-11T11:06:08.867Z,66.81
2018-04-11T11:07:15.626Z,66.99
2018-04-11T11:08:21.892Z,66.97
2018-04-11T11:09:28.403Z,66.94
2018-04-11T11:10:34.460Z,66.56
2018-04-11T11:11:40.718Z,66.97
2018-04-11T11:12:46.719Z,67.43
2018-04-11T11:13:52.946Z,67.09
2018-04-11T11:14:59.307Z,66.97
2018-04-11T11:16:18.850Z,66.03
2018-04-11T11:17:24.798Z,66.37
2018-04-11T11:18:30.767Z,66.92
2018-04-11T11:19:36.096Z,66.96
2018-04-11T11:20:53.207Z,67.41
2018-04-11T11:21:59.211Z,66.76
2018-04-11T11:23:05.467Z,66.70
2018-04-11T11:24:11.742Z,66.87
2018-04-11T11:25:17.716Z,67.89
2018-04-11T11:26:24.551Z,67.69
2018-04-11T11:27:30.770Z,66.31
2018-04-11T11:28:36.791Z,65.67
2018-04-11T11:29:43.002Z,66.09
2018-04-11T11:30:49.324Z,66.10
2018-04-11T11:31:55.626Z,66.60
2018-04-11T11:33:02.098Z,66.14
2018-04-11T11:34:08.122Z,65.72
2018-04-11T11:35:14.138Z,65.84
2018-04-11T11:36:20.460Z,65.78
2018-04-11T11:37:29.251Z,65.77
2018-04-11T11:38:35.519Z,65.67
2018-04-11T11:39:41.523Z,65.34
2018-04-11T11:40:48.103Z,66.35
2018-04-11T11:41:54.897Z,65.65
2018-04-11T11:43:03.871Z,65.74
2018-04-11T11:44:09.804Z,65.26
2018-04-11T11:45:16.081Z,65.64
2018-04-11T11:46:22.399Z,64.89
2018-04-11T11:47:28.683Z,65.59
2018-04-11T11:48:35.787Z,65.50
2018-04-11T11:49:43.270Z,65.15
2018-04-11T11:50:50.065Z,65.32
2018-04-11T11:51:57.452Z,65.28
2018-04-11T11:53:05.978Z,65.07
2018-04-11T11:54:14.694Z,65.20
2018-04-11T11:55:22.516Z,64.77
2018-04-11T11:56:31.025Z,65.89
2018-04-11T11:57:38.049Z,66.65
2018-04-11T11:58:44.902Z,67.14
2018-04-11T11:59:51.724Z,67.39
2018-04-11T12:01:00.316Z,66.33
2018-04-11T12:02:07.745Z,65.58
2018-04-11T12:03:15.212Z,65.65
2018-04-11T12:04:21.562Z,65.59
2018-04-11T12:05:28.577Z,66.12
2018-04-11T12:06:35.809Z,65.63
2018-04-11T12:07:42.522Z,65.39
2018-04-11T12:08:49.196Z,65.61
2018-04-11T12:09:56.795Z,64.83
2018-04-11T12:11:03.310Z,65.81
2018-04-11T12:12:10.543Z,66.07
2018-04-11T12:13:18.972Z,64.98
2018-04-11T12:14:26.012Z,64.73
2018-04-11T12:15:33.163Z,64.94
2018-04-11T12:16:39.874Z,64.36
2018-04-11T12:17:46.401Z,64.10
2018-04-11T12:18:53.130Z,63.59
2018-04-11T12:20:00.871Z,64.57
2018-04-11T12:21:07.666Z,63.75
2018-04-11T12:22:17.867Z,63.92
2018-04-11T12:23:26.555Z,63.96
2018-04-11T12:24:35.912Z,64.82
2018-04-11T12:25:43.072Z,64.06
2018-04-11T12:26:49.758Z,63.69
2018-04-11T12:27:56.411Z,62.71
2018-04-11T12:29:02.782Z,61.97
2018-04-11T12:30:11.074Z,61.86
2018-04-11T12:31:18.176Z,61.93
2018-04-11T12:32:24.830Z,62.06
2018-04-11T12:33:32.064Z,61.96
2018-04-11T12:34:39.400Z,60.42
2018-04-11T12:35:47.861Z,60.35
2018-04-11T12:36:54.993Z,59.46
2018-04-11T12:38:02.323Z,60.38
2018-04-11T12:39:10.291Z,59.21
2018-04-11T12:40:21.058Z,59.56
2018-04-11T12:41:27.623Z,61.16
2018-04-11T12:42:34.375Z,59.90
2018-04-11T12:43:41.193Z,59.95
2018-04-11T12:44:48.391Z,61.88
2018-04-11T12:45:54.628Z,61.03
2018-04-11T12:47:03.349Z,59.50
2018-04-11T12:48:11.355Z,60.31
2018-04-11T12:49:18.740Z,60.54
2018-04-11T12:50:26.818Z,60.82
2018-04-11T12:51:33.831Z,60.91
2018-04-11T12:52:40.613Z,61.32
2018-04-11T12:53:47.067Z,61.57
2018-04-11T12:54:53.997Z,61.82
2018-04-11T12:56:01.120Z,62.46
2018-04-11T12:57:07.952Z,61.93
2018-04-11T12:58:14.397Z,62.33
2018-04-11T12:59:22.279Z,62.66
2018-04-11T13:00:29.445Z,62.18
2018-04-11T13:01:36.243Z,61.89
2018-04-11T13:02:42.618Z,62.33
2018-04-11T13:03:48.967Z,61.77
2018-04-11T13:04:55.305Z,61.61
2018-04-11T13:06:01.592Z,61.64
2018-04-11T13:07:09.380Z,62.68
2018-04-11T13:08:15.878Z,60.50
2018-04-11T13:09:22.787Z,61.45
2018-04-11T13:10:29.741Z,59.96
2018-04-11T13:11:36.278Z,60.09
2018-04-11T13:12:47.076Z,60.23
2018-04-11T13:13:53.846Z,57.98
2018-04-11T13:15:00.887Z,57.50
2018-04-11T13:16:07.198Z,57.49
2018-04-11T13:17:14.946Z,57.57
2018-04-11T13:18:24.042Z,57.91
2018-04-11T13:19:31.892Z,57.56
2018-04-11T13:20:41.489Z,58.38
2018-04-11T13:21:49.211Z,58.22
2018-04-11T13:22:56.447Z,57.35
2018-04-11T13:24:03.865Z,57.71
2018-04-11T13:25:11.370Z,58.70
2018-04-11T13:26:17.984Z,57.93
2018-04-11T13:27:24.773Z,57.99
2018-04-11T13:28:33.061Z,58.50
2018-04-11T13:29:41.199Z,59.03
2018-04-11T13:30:48.423Z,59.06
2018-04-11T13:31:57.799Z,58.76
2018-04-11T13:33:06.317Z,59.16
2018-04-11T13:34:13.082Z,59.46
2018-04-11T13:35:20.492Z,59.75
2018-04-11T13:36:27.044Z,59.83
2018-04-11T13:37:33.453Z,58.91
2018-04-11T13:38:40.378Z,58.75
2018-04-11T13:39:46.786Z,58.67
2018-04-11T13:40:53.186Z,57.50
2018-04-11T13:41:59.273Z,56.59
2018-04-11T13:43:05.548Z,55.51
2018-04-11T13:44:12.095Z,56.28
2018-04-11T13:45:18.479Z,57.18
2018-04-11T13:46:24.628Z,55.74
2018-04-11T13:47:31.043Z,56.47
2018-04-11T13:48:37.458Z,57.03
2018-04-11T13:49:43.847Z,57.86
2018-04-11T13:50:50.168Z,57.25
2018-04-11T13:51:56.515Z,55.80
2018-04-11T13:53:02.585Z,55.41
2018-04-11T13:54:09.024Z,55.85
2018-04-11T13:55:15.424Z,55.44
2018-04-11T13:56:21.635Z,54.89
2018-04-11T13:57:27.778Z,54.42
2018-04-11T13:58:34.158Z,53.49
2018-04-11T13:59:40.565Z,55.01
2018-04-11T14:00:46.954Z,55.23
2018-04-11T14:01:53.107Z,54.08
2018-04-11T14:02:59.490Z,54.99
2018-04-11T14:04:05.918Z,55.17
2018-04-11T14:05:12.903Z,55.39
2018-04-11T14:06:19.050Z,53.29
2018-04-11T14:07:26.971Z,53.18
2018-04-11T14:08:34.895Z,54.33
2018-04-11T14:09:40.922Z,54.09
2018-04-11T14:10:47.033Z,54.13
2018-04-11T14:11:53.507Z,54.67
2018-04-11T14:12:59.570Z,54.18
2018-04-11T14:14:06.012Z,55.07
2018-04-11T14:15:12.307Z,53.52
2018-04-11T14:16:18.386Z,54.42
2018-04-11T14:17:24.529Z,53.95
2018-04-11T14:18:30.915Z,54.80
2018-04-11T14:19:37.249Z,53.69
2018-04-11T14:20:43.562Z,54.56
2018-04-11T14:21:50.007Z,53.50